Holtwood, PA (17532)

12:31 PM EDT on October 31, 2014 (GMT -0400)
Mt. Nebo | Change Station
CLOSE
Current Station
Personal Weather Station
Location: Holtwood, PA
Elevation: 843 ft
Nearby Weather Stations

Elev 843 ft 39.88 °N, 76.32 °W | Updated 5 seconds ago

Overcast
Overcast
56.2 °F
Feels Like 56.2 °F
N
0.0
Wind Variable Wind from NNE
Gusts 4.0 mph

Today
High -- | Low -- °F
--% Chance of Precip.
Yesterday
High -- | Low -- °F
Precip. -- in
7:32 AM 6:04 PM
First Quarter, 56% visible
Pressure 29.99 in
Visibility 10.0 miles
Clouds Overcast 5500 ft
Dew Point 41 °F
Humidity 56%
Rainfall 0.00 in
Snow Depth Not available.
UV 1 out of 12
Pollen .10 out of 12
Air Quality Not available.
Flu Activity Not available.
METAR KLNS 311553Z AUTO 10008KT 10SM OVC055 09/00 A2999 RMK AO2 SLP156 T00940000 $

More Conditions Fewer Conditions

Pressure 29.99 in
Visibility 10.0 miles
Clouds Overcast 5500 ft
Dew Point 41 °F
Humidity 56%
Rainfall 0.00 in
Snow Depth Not available.
UV 1 out of 12
Pollen .10 out of 12
Air Quality Not available.
Flu Activity Not available.
METAR KLNS 311553Z AUTO 10008KT 10SM OVC055 09/00 A2999 RMK AO2 SLP156 T00940000 $

More Conditions Fewer Conditions

10-Day Weather Forecast

Almanac

Astronomy

Oct. 31, 2014 Rise Set
Actual Time
Civil Twilight
Nautical Twilight
Astronomical Twilight
Moon
Length of Visible Light
Length of Day
Tomorrow will be .
, % of the Moon is Illuminated

Today's Extremes

State Highs State Lows

Community

WunderPhotos

Upload Photos

1,766,656 photos uploaded!

WunderBlogs® & News

Nearby

Air Quality

  Air Quality AQ Index Pollutant
Not available.

Snow Depth

Station Depth Elevation

Earthquake Activity

City Distance Mag. Time & Date
Minimum magnitude displayed is 2.5.

Coastal Water Temperatures

Place Temperature

Nearby Weather Stations